To NAV CANADA Home Page Login to a new session Search on AWWS site Feedback and Comments Disclaimer Vers la page française équivalente Tips FAQ What's new on the site To the Forecasts and Observations / NOTAM section To "File a Flight Plan" website Publications and other links Update of the User's profile FIC Telephone Numbers My Weather Data Folder Route Weather Data Regional Weather Data Local Weather Data To the Forecasts and Observations / NOTAM section
Request Generated 07/31/2015 at 01:01:00 UTC . Weather information available at that time is displayed.

METAR/TAF

REPULSE BAY/NU    

LWIS CYUT 310000Z AUTO 04020G27KT 12/07 A2980=
LWIS CYUT 302300Z AUTO 04021G26KT 13/07 A2979=
METAR CYUT 302200Z 06015KT 15SM BKN035 BKN060 14/08 A2979 RMK SC6SC1
16.1/11.6/TR/0.0/LAST STFD OBS/NEXT 311200 SLP090 DENSITY ALT 100FT=

*** REMARK        : Forecast period has ended; this was the last TAF issued
*** REMARQUE : La période de prévision est échue; ceci était le dernier TAF qui a été émis
TAF CYUT 301838Z 3019/3022 05020G30KT P6SM SCT015 BKN070 TEMPO
3019/3022 P6SM -RA BKN015 BKN070
RMK NXT FCST WILL BE ISSUED AT 311345Z=
Your time UTC time
Weather data provided by Environment Canada and NAV CANADA